sensor_id;sensor_type;location;lat;lon;timestamp;P1;durP1;ratioP1;P2;durP2;ratioP2
12768;SDS011;6448;48.916;8.990;2022-07-29T00:00:19;2.15;;;1.95;;
12768;SDS011;6448;48.916;8.990;2022-07-29T00:01:20;2.15;;;1.95;;
12768;SDS011;6448;48.916;8.990;2022-07-29T00:02:21;1.90;;;1.80;;
12768;SDS011;6448;48.916;8.990;2022-07-29T00:03:22;2.28;;;2.08;;
12768;SDS011;6448;48.916;8.990;2022-07-29T00:04:24;1.98;;;1.80;;
12768;SDS011;6448;48.916;8.990;2022-07-29T00:05:26;2.10;;;2.00;;
12768;SDS011;6448;48.916;8.990;2022-07-29T00:06:27;1.90;;;1.80;;
12768;SDS011;6448;48.916;8.990;2022-07-29T00:07:29;2.17;;;2.00;;
12768;SDS011;6448;48.916;8.990;2022-07-29T00:08:30;1.92;;;1.83;;
12768;SDS011;6448;48.916;8.990;2022-07-29T00:09:31;2.08;;;1.98;;
12768;SDS011;6448;48.916;8.990;2022-07-29T00:10:32;2.43;;;2.23;;
12768;SDS011;6448;48.916;8.990;2022-07-29T00:11:34;2.20;;;2.00;;
12768;SDS011;6448;48.916;8.990;2022-07-29T00:12:36;2.80;;;2.00;;
12768;SDS011;6448;48.916;8.990;2022-07-29T00:13:38;1.95;;;1.83;;
12768;SDS011;6448;48.916;8.990;2022-07-29T00:14:40;1.90;;;1.80;;
12768;SDS011;6448;48.916;8.990;2022-07-29T00:15:41;2.80;;;1.90;;
12768;SDS011;6448;48.916;8.990;2022-07-29T00:16:42;2.10;;;1.90;;
12768;SDS011;6448;48.916;8.990;2022-07-29T00:17:43;2.20;;;2.00;;
12768;SDS011;6448;48.916;8.990;2022-07-29T00:18:45;2.17;;;1.98;;
12768;SDS011;6448;48.916;8.990;2022-07-29T00:19:46;2.20;;;2.00;;
12768;SDS011;6448;48.916;8.990;2022-07-29T00:20:47;2.08;;;1.98;;
12768;SDS011;6448;48.916;8.990;2022-07-29T00:21:48;2.10;;;1.90;;
12768;SDS011;6448;48.916;8.990;2022-07-29T00:22:50;2.30;;;2.10;;
12768;SDS011;6448;48.916;8.990;2022-07-29T00:23:51;2.85;;;2.15;;
12768;SDS011;6448;48.916;8.990;2022-07-29T00:24:52;1.90;;;1.80;;
12768;SDS011;6448;48.916;8.990;2022-07-29T00:25:53;2.00;;;1.90;;
12768;SDS011;6448;48.916;8.990;2022-07-29T00:26:55;2.30;;;2.10;;
12768;SDS011;6448;48.916;8.990;2022-07-29T00:27:56;2.20;;;2.00;;
12768;SDS011;6448;48.916;8.990;2022-07-29T00:28:59;2.28;;;2.08;;
12768;SDS011;6448;48.916;8.990;2022-07-29T00:30:00;3.20;;;2.10;;
12768;SDS011;6448;48.916;8.990;2022-07-29T00:31:03;2.20;;;2.00;;
12768;SDS011;6448;48.916;8.990;2022-07-29T00:32:04;2.10;;;2.00;;
12768;SDS011;6448;48.916;8.990;2022-07-29T00:33:06;2.20;;;2.00;;
12768;SDS011;6448;48.916;8.990;2022-07-29T00:34:07;2.90;;;2.17;;
12768;SDS011;6448;48.916;8.990;2022-07-29T00:35:28;2.17;;;1.98;;
12768;SDS011;6448;48.916;8.990;2022-07-29T00:36:44;2.20;;;2.00;;
12768;SDS011;6448;48.916;8.990;2022-07-29T00:37:45;2.10;;;1.90;;
12768;SDS011;6448;48.916;8.990;2022-07-29T00:38:46;1.92;;;1.83;;
12768;SDS011;6448;48.916;8.990;2022-07-29T00:39:47;2.00;;;1.90;;
12768;SDS011;6448;48.916;8.990;2022-07-29T00:40:48;2.10;;;2.00;;
12768;SDS011;6448;48.916;8.990;2022-07-29T00:41:50;1.88;;;1.77;;
12768;SDS011;6448;48.916;8.990;2022-07-29T00:42:51;2.20;;;2.00;;
12768;SDS011;6448;48.916;8.990;2022-07-29T00:43:54;1.85;;;1.75;;
12768;SDS011;6448;48.916;8.990;2022-07-29T00:44:57;2.13;;;2.03;;
12768;SDS011;6448;48.916;8.990;2022-07-29T00:45:57;1.98;;;1.88;;
12768;SDS011;6448;48.916;8.990;2022-07-29T00:46:59;2.00;;;1.90;;
12768;SDS011;6448;48.916;8.990;2022-07-29T00:48:00;2.10;;;2.00;;
12768;SDS011;6448;48.916;8.990;2022-07-29T00:49:02;2.00;;;1.90;;
12768;SDS011;6448;48.916;8.990;2022-07-29T00:50:03;2.10;;;2.00;;
12768;SDS011;6448;48.916;8.990;2022-07-29T00:51:06;1.98;;;1.88;;
12768;SDS011;6448;48.916;8.990;2022-07-29T00:52:08;1.92;;;1.83;;
12768;SDS011;6448;48.916;8.990;2022-07-29T00:53:10;1.95;;;1.85;;
12768;SDS011;6448;48.916;8.990;2022-07-29T00:54:13;1.83;;;1.73;;
12768;SDS011;6448;48.916;8.990;2022-07-29T00:55:15;2.00;;;1.90;;
12768;SDS011;6448;48.916;8.990;2022-07-29T00:56:17;2.05;;;1.95;;
12768;SDS011;6448;48.916;8.990;2022-07-29T00:57:19;2.20;;;2.00;;
12768;SDS011;6448;48.916;8.990;2022-07-29T00:58:20;2.00;;;1.90;;
12768;SDS011;6448;48.916;8.990;2022-07-29T00:59:22;2.22;;;2.03;;
12768;SDS011;6448;48.916;8.990;2022-07-29T01:00:26;2.00;;;1.80;;
12768;SDS011;6448;48.916;8.990;2022-07-29T01:01:29;2.10;;;1.90;;
12768;SDS011;6448;48.916;8.990;2022-07-29T01:02:29;2.30;;;2.00;;
12768;SDS011;6448;48.916;8.990;2022-07-29T01:03:31;2.00;;;1.90;;
12768;SDS011;6448;48.916;8.990;2022-07-29T01:04:33;2.10;;;1.98;;
12768;SDS011;6448;48.916;8.990;2022-07-29T01:05:34;1.70;;;1.60;;
12768;SDS011;6448;48.916;8.990;2022-07-29T01:06:36;1.80;;;1.70;;
12768;SDS011;6448;48.916;8.990;2022-07-29T01:07:37;1.95;;;1.85;;
12768;SDS011;6448;48.916;8.990;2022-07-29T01:08:40;2.10;;;2.00;;
12768;SDS011;6448;48.916;8.990;2022-07-29T01:09:41;2.10;;;1.90;;
12768;SDS011;6448;48.916;8.990;2022-07-29T01:10:44;2.35;;;1.90;;
12768;SDS011;6448;48.916;8.990;2022-07-29T01:11:46;2.00;;;1.90;;
12768;SDS011;6448;48.916;8.990;2022-07-29T01:12:49;1.90;;;1.80;;
12768;SDS011;6448;48.916;8.990;2022-07-29T01:13:52;1.90;;;1.80;;
12768;SDS011;6448;48.916;8.990;2022-07-29T01:14:54;1.97;;;1.87;;
12768;SDS011;6448;48.916;8.990;2022-07-29T01:15:58;1.98;;;1.88;;
12768;SDS011;6448;48.916;8.990;2022-07-29T01:17:05;2.10;;;1.90;;
12768;SDS011;6448;48.916;8.990;2022-07-29T01:18:11;2.13;;;2.00;;
12768;SDS011;6448;48.916;8.990;2022-07-29T01:19:22;2.53;;;2.33;;
12768;SDS011;6448;48.916;8.990;2022-07-29T01:20:52;2.10;;;1.95;;
12768;SDS011;6448;48.916;8.990;2022-07-29T01:22:12;2.15;;;1.98;;
12768;SDS011;6448;48.916;8.990;2022-07-29T01:23:34;1.90;;;1.80;;
12768;SDS011;6448;48.916;8.990;2022-07-29T01:24:55;2.25;;;2.05;;
12768;SDS011;6448;48.916;8.990;2022-07-29T01:26:20;2.30;;;2.10;;
12768;SDS011;6448;48.916;8.990;2022-07-29T01:27:38;2.20;;;2.10;;
12768;SDS011;6448;48.916;8.990;2022-07-29T01:28:59;2.17;;;2.00;;
12768;SDS011;6448;48.916;8.990;2022-07-29T01:30:07;1.77;;;1.67;;
12768;SDS011;6448;48.916;8.990;2022-07-29T01:31:08;2.10;;;2.00;;
12768;SDS011;6448;48.916;8.990;2022-07-29T01:32:14;2.13;;;1.92;;
12768;SDS011;6448;48.916;8.990;2022-07-29T01:33:19;2.00;;;1.88;;
12768;SDS011;6448;48.916;8.990;2022-07-29T01:34:42;2.15;;;2.00;;
12768;SDS011;6448;48.916;8.990;2022-07-29T01:35:51;2.15;;;2.03;;
12768;SDS011;6448;48.916;8.990;2022-07-29T01:36:55;2.57;;;2.20;;
12768;SDS011;6448;48.916;8.990;2022-07-29T01:38:05;2.40;;;2.20;;
12768;SDS011;6448;48.916;8.990;2022-07-29T01:39:11;2.50;;;2.30;;
12768;SDS011;6448;48.916;8.990;2022-07-29T01:40:19;2.40;;;2.30;;
12768;SDS011;6448;48.916;8.990;2022-07-29T01:41:22;2.40;;;2.20;;
12768;SDS011;6448;48.916;8.990;2022-07-29T01:42:26;2.40;;;2.20;;
12768;SDS011;6448;48.916;8.990;2022-07-29T01:43:32;2.28;;;2.08;;
12768;SDS011;6448;48.916;8.990;2022-07-29T01:44:39;2.10;;;2.00;;
12768;SDS011;6448;48.916;8.990;2022-07-29T01:45:46;2.28;;;2.10;;
12768;SDS011;6448;48.916;8.990;2022-07-29T01:46:54;2.55;;;2.35;;
12768;SDS011;6448;48.916;8.990;2022-07-29T01:48:00;2.78;;;2.30;;
12768;SDS011;6448;48.916;8.990;2022-07-29T01:49:06;2.45;;;2.25;;
12768;SDS011;6448;48.916;8.990;2022-07-29T01:50:12;2.30;;;2.10;;
12768;SDS011;6448;48.916;8.990;2022-07-29T01:51:18;2.20;;;2.10;;
12768;SDS011;6448;48.916;8.990;2022-07-29T01:52:23;2.20;;;2.10;;
12768;SDS011;6448;48.916;8.990;2022-07-29T01:53:28;2.10;;;2.00;;
12768;SDS011;6448;48.916;8.990;2022-07-29T01:54:34;2.40;;;2.20;;
12768;SDS011;6448;48.916;8.990;2022-07-29T01:55:44;2.17;;;2.00;;
12768;SDS011;6448;48.916;8.990;2022-07-29T01:56:47;2.10;;;2.00;;
12768;SDS011;6448;48.916;8.990;2022-07-29T01:57:51;1.90;;;1.80;;
12768;SDS011;6448;48.916;8.990;2022-07-29T01:58:52;2.08;;;1.92;;
12768;SDS011;6448;48.916;8.990;2022-07-29T01:59:55;2.20;;;2.00;;
12768;SDS011;6448;48.916;8.990;2022-07-29T02:00:59;1.90;;;1.80;;
12768;SDS011;6448;48.916;8.990;2022-07-29T02:02:01;2.03;;;1.90;;
12768;SDS011;6448;48.916;8.990;2022-07-29T02:03:05;2.10;;;1.90;;
12768;SDS011;6448;48.916;8.990;2022-07-29T02:04:09;1.90;;;1.80;;
12768;SDS011;6448;48.916;8.990;2022-07-29T02:05:14;1.90;;;1.80;;
12768;SDS011;6448;48.916;8.990;2022-07-29T02:06:18;1.88;;;1.60;;
12768;SDS011;6448;48.916;8.990;2022-07-29T02:07:23;2.40;;;1.90;;
12768;SDS011;6448;48.916;8.990;2022-07-29T02:08:26;2.20;;;2.00;;
12768;SDS011;6448;48.916;8.990;2022-07-29T02:09:30;1.80;;;1.70;;
12768;SDS011;6448;48.916;8.990;2022-07-29T02:10:33;1.70;;;1.60;;
12768;SDS011;6448;48.916;8.990;2022-07-29T02:11:36;2.20;;;2.00;;
12768;SDS011;6448;48.916;8.990;2022-07-29T02:12:38;1.90;;;1.80;;
12768;SDS011;6448;48.916;8.990;2022-07-29T02:13:42;1.75;;;1.65;;
12768;SDS011;6448;48.916;8.990;2022-07-29T02:14:44;1.77;;;1.67;;
12768;SDS011;6448;48.916;8.990;2022-07-29T02:15:50;2.17;;;2.00;;
12768;SDS011;6448;48.916;8.990;2022-07-29T02:16:53;2.15;;;2.00;;
12768;SDS011;6448;48.916;8.990;2022-07-29T02:18:00;2.50;;;2.30;;
12768;SDS011;6448;48.916;8.990;2022-07-29T02:19:04;2.17;;;2.08;;
12768;SDS011;6448;48.916;8.990;2022-07-29T02:20:09;2.38;;;2.20;;
12768;SDS011;6448;48.916;8.990;2022-07-29T02:21:10;2.13;;;1.92;;
12768;SDS011;6448;48.916;8.990;2022-07-29T02:22:18;2.60;;;2.40;;
12768;SDS011;6448;48.916;8.990;2022-07-29T02:23:20;2.60;;;2.40;;
12768;SDS011;6448;48.916;8.990;2022-07-29T02:24:23;2.55;;;2.35;;
12768;SDS011;6448;48.916;8.990;2022-07-29T02:25:25;2.90;;;2.53;;
12768;SDS011;6448;48.916;8.990;2022-07-29T02:26:29;2.60;;;2.40;;
12768;SDS011;6448;48.916;8.990;2022-07-29T02:27:32;2.43;;;2.23;;
12768;SDS011;6448;48.916;8.990;2022-07-29T02:28:35;2.47;;;2.28;;
12768;SDS011;6448;48.916;8.990;2022-07-29T02:29:36;2.17;;;2.08;;
12768;SDS011;6448;48.916;8.990;2022-07-29T02:30:40;2.40;;;2.28;;
12768;SDS011;6448;48.916;8.990;2022-07-29T02:31:44;2.60;;;2.40;;
12768;SDS011;6448;48.916;8.990;2022-07-29T02:32:48;2.60;;;2.40;;
12768;SDS011;6448;48.916;8.990;2022-07-29T02:33:51;2.50;;;2.30;;
12768;SDS011;6448;48.916;8.990;2022-07-29T02:34:54;2.45;;;2.25;;
12768;SDS011;6448;48.916;8.990;2022-07-29T02:35:55;2.40;;;2.20;;
12768;SDS011;6448;48.916;8.990;2022-07-29T02:36:59;2.17;;;2.07;;
12768;SDS011;6448;48.916;8.990;2022-07-29T02:38:01;2.58;;;2.38;;
12768;SDS011;6448;48.916;8.990;2022-07-29T02:39:21;2.58;;;2.35;;
12768;SDS011;6448;48.916;8.990;2022-07-29T02:40:25;2.50;;;2.30;;
12768;SDS011;6448;48.916;8.990;2022-07-29T02:41:27;2.40;;;2.25;;
12768;SDS011;6448;48.916;8.990;2022-07-29T02:42:32;2.17;;;2.00;;
12768;SDS011;6448;48.916;8.990;2022-07-29T02:43:34;2.30;;;2.17;;
12768;SDS011;6448;48.916;8.990;2022-07-29T02:44:37;2.40;;;2.20;;
12768;SDS011;6448;48.916;8.990;2022-07-29T02:45:38;2.22;;;1.92;;
12768;SDS011;6448;48.916;8.990;2022-07-29T02:46:41;2.70;;;2.50;;
12768;SDS011;6448;48.916;8.990;2022-07-29T02:47:49;2.50;;;2.30;;
12768;SDS011;6448;48.916;8.990;2022-07-29T02:48:51;2.53;;;2.33;;
12768;SDS011;6448;48.916;8.990;2022-07-29T02:50:00;2.80;;;2.60;;
12768;SDS011;6448;48.916;8.990;2022-07-29T02:51:08;2.58;;;2.38;;
12768;SDS011;6448;48.916;8.990;2022-07-29T02:52:15;2.40;;;2.30;;
12768;SDS011;6448;48.916;8.990;2022-07-29T02:53:22;3.10;;;2.70;;
12768;SDS011;6448;48.916;8.990;2022-07-29T02:54:26;2.80;;;2.50;;
12768;SDS011;6448;48.916;8.990;2022-07-29T02:55:37;2.80;;;2.60;;
12768;SDS011;6448;48.916;8.990;2022-07-29T02:56:40;3.00;;;2.80;;
12768;SDS011;6448;48.916;8.990;2022-07-29T02:57:44;2.67;;;2.47;;
12768;SDS011;6448;48.916;8.990;2022-07-29T02:58:50;2.70;;;2.50;;
12768;SDS011;6448;48.916;8.990;2022-07-29T02:59:56;2.72;;;2.53;;
12768;SDS011;6448;48.916;8.990;2022-07-29T03:01:04;3.08;;;2.60;;
12768;SDS011;6448;48.916;8.990;2022-07-29T03:02:13;2.65;;;2.45;;
12768;SDS011;6448;48.916;8.990;2022-07-29T03:03:16;2.70;;;2.50;;
12768;SDS011;6448;48.916;8.990;2022-07-29T03:04:19;2.60;;;2.40;;
12768;SDS011;6448;48.916;8.990;2022-07-29T03:05:24;2.83;;;2.63;;
12768;SDS011;6448;48.916;8.990;2022-07-29T03:06:27;2.33;;;2.20;;
12768;SDS011;6448;48.916;8.990;2022-07-29T03:07:29;2.60;;;2.40;;
12768;SDS011;6448;48.916;8.990;2022-07-29T03:08:31;2.80;;;2.60;;
12768;SDS011;6448;48.916;8.990;2022-07-29T03:09:34;2.80;;;2.60;;
12768;SDS011;6448;48.916;8.990;2022-07-29T03:10:37;3.20;;;2.63;;
12768;SDS011;6448;48.916;8.990;2022-07-29T03:11:39;2.53;;;2.33;;
12768;SDS011;6448;48.916;8.990;2022-07-29T03:12:42;2.33;;;2.20;;
12768;SDS011;6448;48.916;8.990;2022-07-29T03:13:43;2.55;;;2.35;;
12768;SDS011;6448;48.916;8.990;2022-07-29T03:14:46;2.73;;;2.53;;
12768;SDS011;6448;48.916;8.990;2022-07-29T03:15:47;3.08;;;2.88;;
12768;SDS011;6448;48.916;8.990;2022-07-29T03:16:50;2.45;;;2.25;;
12768;SDS011;6448;48.916;8.990;2022-07-29T03:17:53;2.60;;;2.40;;
12768;SDS011;6448;48.916;8.990;2022-07-29T03:18:55;2.90;;;2.70;;
12768;SDS011;6448;48.916;8.990;2022-07-29T03:19:56;2.83;;;2.47;;
12768;SDS011;6448;48.916;8.990;2022-07-29T03:20:59;2.65;;;2.45;;
12768;SDS011;6448;48.916;8.990;2022-07-29T03:21:59;2.47;;;2.38;;
12768;SDS011;6448;48.916;8.990;2022-07-29T03:23:02;2.78;;;2.58;;
12768;SDS011;6448;48.916;8.990;2022-07-29T03:24:03;2.63;;;2.42;;
12768;SDS011;6448;48.916;8.990;2022-07-29T03:25:07;2.65;;;2.45;;
12768;SDS011;6448;48.916;8.990;2022-07-29T03:26:08;3.07;;;2.70;;
12768;SDS011;6448;48.916;8.990;2022-07-29T03:27:10;2.80;;;2.60;;
12768;SDS011;6448;48.916;8.990;2022-07-29T03:28:11;2.60;;;2.40;;
12768;SDS011;6448;48.916;8.990;2022-07-29T03:29:13;2.80;;;2.60;;
12768;SDS011;6448;48.916;8.990;2022-07-29T03:30:14;2.55;;;2.35;;
12768;SDS011;6448;48.916;8.990;2022-07-29T03:31:16;2.50;;;2.30;;
12768;SDS011;6448;48.916;8.990;2022-07-29T03:32:17;2.70;;;2.50;;
12768;SDS011;6448;48.916;8.990;2022-07-29T03:33:20;2.45;;;2.25;;
12768;SDS011;6448;48.916;8.990;2022-07-29T03:34:21;2.58;;;2.38;;
12768;SDS011;6448;48.916;8.990;2022-07-29T03:35:23;2.47;;;2.28;;
12768;SDS011;6448;48.916;8.990;2022-07-29T03:36:23;2.50;;;2.30;;
12768;SDS011;6448;48.916;8.990;2022-07-29T03:37:25;2.25;;;2.05;;
12768;SDS011;6448;48.916;8.990;2022-07-29T03:38:26;2.47;;;2.28;;
12768;SDS011;6448;48.916;8.990;2022-07-29T03:39:31;2.85;;;2.38;;
12768;SDS011;6448;48.916;8.990;2022-07-29T03:40:37;2.22;;;2.13;;
12768;SDS011;6448;48.916;8.990;2022-07-29T03:41:41;2.67;;;2.47;;
12768;SDS011;6448;48.916;8.990;2022-07-29T03:42:44;2.60;;;2.40;;
12768;SDS011;6448;48.916;8.990;2022-07-29T03:43:47;2.67;;;2.47;;
12768;SDS011;6448;48.916;8.990;2022-07-29T03:44:51;2.50;;;2.30;;
12768;SDS011;6448;48.916;8.990;2022-07-29T03:45:55;2.10;;;2.00;;
12768;SDS011;6448;48.916;8.990;2022-07-29T03:47:00;2.58;;;2.38;;
12768;SDS011;6448;48.916;8.990;2022-07-29T03:48:05;2.40;;;2.20;;
12768;SDS011;6448;48.916;8.990;2022-07-29T03:49:11;2.40;;;2.25;;
12768;SDS011;6448;48.916;8.990;2022-07-29T03:50:15;2.65;;;2.13;;
12768;SDS011;6448;48.916;8.990;2022-07-29T03:51:17;2.30;;;2.20;;
12768;SDS011;6448;48.916;8.990;2022-07-29T03:52:18;2.42;;;2.22;;
12768;SDS011;6448;48.916;8.990;2022-07-29T03:53:20;2.50;;;2.30;;
12768;SDS011;6448;48.916;8.990;2022-07-29T03:54:22;2.70;;;2.50;;
12768;SDS011;6448;48.916;8.990;2022-07-29T03:55:23;2.70;;;2.50;;
12768;SDS011;6448;48.916;8.990;2022-07-29T03:56:26;2.38;;;2.25;;
12768;SDS011;6448;48.916;8.990;2022-07-29T03:57:28;3.00;;;2.53;;
12768;SDS011;6448;48.916;8.990;2022-07-29T03:58:31;2.85;;;2.65;;
12768;SDS011;6448;48.916;8.990;2022-07-29T03:59:33;2.40;;;2.20;;
12768;SDS011;6448;48.916;8.990;2022-07-29T04:00:35;2.80;;;2.53;;
12768;SDS011;6448;48.916;8.990;2022-07-29T04:01:37;2.35;;;2.20;;
12768;SDS011;6448;48.916;8.990;2022-07-29T04:02:40;2.63;;;2.50;;
12768;SDS011;6448;48.916;8.990;2022-07-29T04:03:45;2.80;;;2.60;;
12768;SDS011;6448;48.916;8.990;2022-07-29T04:04:48;2.78;;;2.58;;
12768;SDS011;6448;48.916;8.990;2022-07-29T04:05:57;2.80;;;2.60;;
12768;SDS011;6448;48.916;8.990;2022-07-29T04:07:00;2.70;;;2.50;;
12768;SDS011;6448;48.916;8.990;2022-07-29T04:08:01;2.83;;;2.63;;
12768;SDS011;6448;48.916;8.990;2022-07-29T04:09:03;2.80;;;2.60;;
12768;SDS011;6448;48.916;8.990;2022-07-29T04:10:04;2.35;;;2.25;;
12768;SDS011;6448;48.916;8.990;2022-07-29T04:11:06;2.70;;;2.50;;
12768;SDS011;6448;48.916;8.990;2022-07-29T04:12:07;2.72;;;2.50;;
12768;SDS011;6448;48.916;8.990;2022-07-29T04:13:09;2.47;;;2.28;;
12768;SDS011;6448;48.916;8.990;2022-07-29T04:14:10;2.40;;;2.20;;
12768;SDS011;6448;48.916;8.990;2022-07-29T04:15:12;2.50;;;2.30;;
12768;SDS011;6448;48.916;8.990;2022-07-29T04:16:13;2.75;;;2.55;;
12768;SDS011;6448;48.916;8.990;2022-07-29T04:17:14;2.60;;;2.40;;
12768;SDS011;6448;48.916;8.990;2022-07-29T04:18:15;2.70;;;2.50;;
12768;SDS011;6448;48.916;8.990;2022-07-29T04:19:17;2.70;;;2.50;;
12768;SDS011;6448;48.916;8.990;2022-07-29T04:20:19;2.60;;;2.40;;
12768;SDS011;6448;48.916;8.990;2022-07-29T04:21:21;2.77;;;2.57;;
12768;SDS011;6448;48.916;8.990;2022-07-29T04:22:22;2.87;;;2.67;;
12768;SDS011;6448;48.916;8.990;2022-07-29T04:23:23;2.50;;;2.30;;
12768;SDS011;6448;48.916;8.990;2022-07-29T04:24:26;2.60;;;2.40;;
12768;SDS011;6448;48.916;8.990;2022-07-29T04:25:27;2.80;;;2.60;;
12768;SDS011;6448;48.916;8.990;2022-07-29T04:26:29;2.67;;;2.47;;
12768;SDS011;6448;48.916;8.990;2022-07-29T04:27:30;2.80;;;2.60;;
12768;SDS011;6448;48.916;8.990;2022-07-29T04:28:32;2.90;;;2.70;;
12768;SDS011;6448;48.916;8.990;2022-07-29T04:29:33;2.80;;;2.60;;
12768;SDS011;6448;48.916;8.990;2022-07-29T04:30:35;2.70;;;2.50;;
12768;SDS011;6448;48.916;8.990;2022-07-29T04:31:37;2.70;;;2.50;;
12768;SDS011;6448;48.916;8.990;2022-07-29T04:32:39;2.50;;;2.30;;
12768;SDS011;6448;48.916;8.990;2022-07-29T04:33:40;2.53;;;2.33;;
12768;SDS011;6448;48.916;8.990;2022-07-29T04:34:42;2.50;;;2.30;;
12768;SDS011;6448;48.916;8.990;2022-07-29T04:35:44;2.70;;;2.50;;
12768;SDS011;6448;48.916;8.990;2022-07-29T04:36:45;2.53;;;2.33;;
12768;SDS011;6448;48.916;8.990;2022-07-29T04:37:46;2.70;;;2.50;;
12768;SDS011;6448;48.916;8.990;2022-07-29T04:38:48;2.70;;;2.50;;
12768;SDS011;6448;48.916;8.990;2022-07-29T04:39:49;2.73;;;2.53;;
12768;SDS011;6448;48.916;8.990;2022-07-29T04:40:50;2.80;;;2.60;;
12768;SDS011;6448;48.916;8.990;2022-07-29T04:41:52;2.40;;;2.20;;
12768;SDS011;6448;48.916;8.990;2022-07-29T04:42:53;2.50;;;2.30;;
12768;SDS011;6448;48.916;8.990;2022-07-29T04:43:55;2.55;;;2.35;;
12768;SDS011;6448;48.916;8.990;2022-07-29T04:44:55;2.60;;;2.40;;
12768;SDS011;6448;48.916;8.990;2022-07-29T04:45:57;2.30;;;2.10;;
12768;SDS011;6448;48.916;8.990;2022-07-29T04:46:58;2.70;;;2.50;;
12768;SDS011;6448;48.916;8.990;2022-07-29T04:48:00;2.60;;;2.40;;
12768;SDS011;6448;48.916;8.990;2022-07-29T04:49:01;2.50;;;2.30;;
12768;SDS011;6448;48.916;8.990;2022-07-29T04:50:03;2.60;;;2.40;;
12768;SDS011;6448;48.916;8.990;2022-07-29T04:51:07;2.63;;;2.42;;
12768;SDS011;6448;48.916;8.990;2022-07-29T04:52:08;2.70;;;2.50;;
12768;SDS011;6448;48.916;8.990;2022-07-29T04:53:09;2.63;;;2.43;;
12768;SDS011;6448;48.916;8.990;2022-07-29T04:54:11;2.80;;;2.60;;
12768;SDS011;6448;48.916;8.990;2022-07-29T04:55:12;2.50;;;2.30;;
12768;SDS011;6448;48.916;8.990;2022-07-29T04:56:13;2.60;;;2.40;;
12768;SDS011;6448;48.916;8.990;2022-07-29T04:57:14;2.67;;;2.47;;
12768;SDS011;6448;48.916;8.990;2022-07-29T04:58:16;2.60;;;2.40;;
12768;SDS011;6448;48.916;8.990;2022-07-29T04:59:17;2.70;;;2.50;;
12768;SDS011;6448;48.916;8.990;2022-07-29T05:00:19;2.70;;;2.50;;
12768;SDS011;6448;48.916;8.990;2022-07-29T05:01:19;2.80;;;2.60;;
12768;SDS011;6448;48.916;8.990;2022-07-29T05:02:21;2.85;;;2.63;;
12768;SDS011;6448;48.916;8.990;2022-07-29T05:03:22;3.00;;;2.80;;
12768;SDS011;6448;48.916;8.990;2022-07-29T05:04:24;3.10;;;2.90;;
12768;SDS011;6448;48.916;8.990;2022-07-29T05:05:24;2.80;;;2.60;;
12768;SDS011;6448;48.916;8.990;2022-07-29T05:06:27;2.85;;;2.65;;
12768;SDS011;6448;48.916;8.990;2022-07-29T05:07:28;2.75;;;2.50;;
12768;SDS011;6448;48.916;8.990;2022-07-29T05:08:30;2.78;;;2.58;;
12768;SDS011;6448;48.916;8.990;2022-07-29T05:09:31;3.00;;;2.80;;
12768;SDS011;6448;48.916;8.990;2022-07-29T05:10:32;3.00;;;2.80;;
12768;SDS011;6448;48.916;8.990;2022-07-29T05:11:37;3.93;;;2.50;;
12768;SDS011;6448;48.916;8.990;2022-07-29T05:12:39;3.08;;;2.88;;
12768;SDS011;6448;48.916;8.990;2022-07-29T05:13:40;2.88;;;2.67;;
12768;SDS011;6448;48.916;8.990;2022-07-29T05:14:42;2.80;;;2.60;;
12768;SDS011;6448;48.916;8.990;2022-07-29T05:15:43;2.90;;;2.70;;
12768;SDS011;6448;48.916;8.990;2022-07-29T05:16:45;3.10;;;2.90;;
12768;SDS011;6448;48.916;8.990;2022-07-29T05:17:45;3.10;;;2.83;;
12768;SDS011;6448;48.916;8.990;2022-07-29T05:18:47;3.00;;;2.80;;
12768;SDS011;6448;48.916;8.990;2022-07-29T05:19:49;2.83;;;2.63;;
12768;SDS011;6448;48.916;8.990;2022-07-29T05:20:51;2.80;;;2.60;;
12768;SDS011;6448;48.916;8.990;2022-07-29T05:21:54;3.10;;;2.90;;
12768;SDS011;6448;48.916;8.990;2022-07-29T05:22:55;3.08;;;2.88;;
12768;SDS011;6448;48.916;8.990;2022-07-29T05:23:57;2.90;;;2.70;;
12768;SDS011;6448;48.916;8.990;2022-07-29T05:24:58;2.90;;;2.70;;
12768;SDS011;6448;48.916;8.990;2022-07-29T05:25:59;2.90;;;2.70;;
12768;SDS011;6448;48.916;8.990;2022-07-29T05:27:00;2.97;;;2.78;;
12768;SDS011;6448;48.916;8.990;2022-07-29T05:28:02;3.00;;;2.80;;
12768;SDS011;6448;48.916;8.990;2022-07-29T05:29:03;3.05;;;2.75;;
12768;SDS011;6448;48.916;8.990;2022-07-29T05:30:05;3.00;;;2.80;;
12768;SDS011;6448;48.916;8.990;2022-07-29T05:31:08;2.95;;;2.75;;
12768;SDS011;6448;48.916;8.990;2022-07-29T05:32:09;2.92;;;2.70;;
12768;SDS011;6448;48.916;8.990;2022-07-29T05:33:11;2.90;;;2.70;;
12768;SDS011;6448;48.916;8.990;2022-07-29T05:34:11;3.03;;;2.83;;
12768;SDS011;6448;48.916;8.990;2022-07-29T05:35:13;3.20;;;2.97;;
12768;SDS011;6448;48.916;8.990;2022-07-29T05:36:15;2.92;;;2.72;;
12768;SDS011;6448;48.916;8.990;2022-07-29T05:37:17;2.90;;;2.70;;
12768;SDS011;6448;48.916;8.990;2022-07-29T05:38:19;3.35;;;3.05;;
12768;SDS011;6448;48.916;8.990;2022-07-29T05:39:20;3.40;;;3.10;;
12768;SDS011;6448;48.916;8.990;2022-07-29T05:40:23;2.90;;;2.70;;
12768;SDS011;6448;48.916;8.990;2022-07-29T05:41:25;3.10;;;2.90;;
12768;SDS011;6448;48.916;8.990;2022-07-29T05:42:26;3.25;;;3.05;;
12768;SDS011;6448;48.916;8.990;2022-07-29T05:43:28;3.00;;;2.80;;
12768;SDS011;6448;48.916;8.990;2022-07-29T05:44:29;3.17;;;2.88;;
12768;SDS011;6448;48.916;8.990;2022-07-29T05:45:30;2.70;;;2.50;;
12768;SDS011;6448;48.916;8.990;2022-07-29T05:46:31;2.90;;;2.70;;
12768;SDS011;6448;48.916;8.990;2022-07-29T05:47:33;2.80;;;2.58;;
12768;SDS011;6448;48.916;8.990;2022-07-29T05:48:35;3.63;;;3.05;;
12768;SDS011;6448;48.916;8.990;2022-07-29T05:49:36;3.17;;;2.97;;
12768;SDS011;6448;48.916;8.990;2022-07-29T05:50:38;2.80;;;2.60;;
12768;SDS011;6448;48.916;8.990;2022-07-29T05:51:40;2.30;;;2.20;;
12768;SDS011;6448;48.916;8.990;2022-07-29T05:52:42;3.35;;;3.10;;
12768;SDS011;6448;48.916;8.990;2022-07-29T05:53:44;3.13;;;2.92;;
12768;SDS011;6448;48.916;8.990;2022-07-29T05:54:44;3.20;;;3.00;;
12768;SDS011;6448;48.916;8.990;2022-07-29T05:55:46;3.00;;;2.80;;
12768;SDS011;6448;48.916;8.990;2022-07-29T05:56:47;2.95;;;2.75;;
12768;SDS011;6448;48.916;8.990;2022-07-29T05:57:49;2.90;;;2.70;;
12768;SDS011;6448;48.916;8.990;2022-07-29T05:58:52;3.22;;;2.92;;
12768;SDS011;6448;48.916;8.990;2022-07-29T05:59:53;3.40;;;3.10;;
12768;SDS011;6448;48.916;8.990;2022-07-29T06:00:55;3.13;;;2.90;;
12768;SDS011;6448;48.916;8.990;2022-07-29T06:01:59;3.30;;;3.00;;
12768;SDS011;6448;48.916;8.990;2022-07-29T06:03:00;3.53;;;3.22;;
12768;SDS011;6448;48.916;8.990;2022-07-29T06:04:01;3.40;;;3.10;;
12768;SDS011;6448;48.916;8.990;2022-07-29T06:05:03;3.40;;;3.10;;
12768;SDS011;6448;48.916;8.990;2022-07-29T06:06:04;3.50;;;3.20;;
12768;SDS011;6448;48.916;8.990;2022-07-29T06:07:07;3.00;;;2.80;;
12768;SDS011;6448;48.916;8.990;2022-07-29T06:08:10;3.47;;;3.17;;
12768;SDS011;6448;48.916;8.990;2022-07-29T06:09:11;3.42;;;3.13;;
12768;SDS011;6448;48.916;8.990;2022-07-29T06:10:13;3.42;;;3.13;;
12768;SDS011;6448;48.916;8.990;2022-07-29T06:11:14;3.30;;;3.10;;
12768;SDS011;6448;48.916;8.990;2022-07-29T06:12:15;3.40;;;3.13;;
12768;SDS011;6448;48.916;8.990;2022-07-29T06:13:16;3.20;;;3.00;;
12768;SDS011;6448;48.916;8.990;2022-07-29T06:14:18;3.00;;;2.80;;
12768;SDS011;6448;48.916;8.990;2022-07-29T06:15:19;3.50;;;3.22;;
12768;SDS011;6448;48.916;8.990;2022-07-29T06:16:21;3.20;;;3.00;;
12768;SDS011;6448;48.916;8.990;2022-07-29T06:17:22;2.90;;;2.70;;
12768;SDS011;6448;48.916;8.990;2022-07-29T06:18:24;2.90;;;2.70;;
12768;SDS011;6448;48.916;8.990;2022-07-29T06:19:25;3.05;;;2.85;;
12768;SDS011;6448;48.916;8.990;2022-07-29T06:20:26;3.05;;;2.85;;
12768;SDS011;6448;48.916;8.990;2022-07-29T06:21:29;3.08;;;2.88;;
12768;SDS011;6448;48.916;8.990;2022-07-29T06:22:31;3.28;;;3.08;;
12768;SDS011;6448;48.916;8.990;2022-07-29T06:23:33;3.25;;;3.05;;
12768;SDS011;6448;48.916;8.990;2022-07-29T06:24:35;3.15;;;2.95;;
12768;SDS011;6448;48.916;8.990;2022-07-29T06:25:37;3.20;;;3.00;;